createdAt,value
2023-02-11T00:00:44.346Z,25.75
2023-02-11T00:02:47.998Z,25.40
2023-02-11T00:04:50.216Z,27.13
2023-02-11T00:06:55.113Z,28.23
2023-02-11T00:08:57.242Z,25.77
2023-02-11T00:11:05.414Z,26.88
2023-02-11T00:13:08.099Z,25.48
2023-02-11T00:15:10.582Z,27.13
2023-02-11T00:17:32.283Z,28.73
2023-02-11T00:19:54.709Z,27.15
2023-02-11T00:22:17.177Z,27.83
2023-02-11T00:24:39.528Z,25.15
2023-02-11T00:26:42.112Z,25.50
2023-02-11T00:28:44.509Z,26.02
2023-02-11T00:30:46.670Z,27.15
2023-02-11T00:32:51.171Z,26.17
2023-02-11T00:34:55.284Z,26.50
2023-02-11T00:36:57.394Z,27.17
2023-02-11T00:41:02.201Z,26.40
2023-02-11T00:43:04.228Z,27.33
2023-02-11T00:45:26.664Z,26.98
2023-02-11T00:47:49.085Z,26.60
2023-02-11T00:50:11.403Z,25.20
2023-02-11T00:52:33.782Z,24.60
2023-02-11T00:54:56.211Z,26.65
2023-02-11T00:57:18.563Z,25.35
2023-02-11T00:59:22.200Z,27.42
2023-02-11T01:01:24.473Z,25.45
2023-02-11T01:03:26.658Z,25.45
2023-02-11T01:05:30.158Z,24.55
2023-02-11T01:07:32.258Z,24.63
2023-02-11T01:09:34.308Z,24.02
2023-02-11T01:11:56.664Z,25.55
2023-02-11T01:13:59.095Z,25.02
2023-02-11T01:16:01.375Z,25.13
2023-02-11T01:18:05.175Z,23.52
2023-02-11T01:20:09.132Z,24.67
2023-02-11T01:22:11.167Z,24.45
2023-02-11T01:24:13.173Z,21.38
2023-02-11T01:26:35.529Z,24.37
2023-02-11T01:29:00.129Z,23.77
2023-02-11T01:31:22.549Z,24.05
2023-02-11T01:33:44.975Z,23.48
2023-02-11T01:36:07.788Z,23.85
2023-02-11T01:38:30.422Z,23.23
2023-02-11T01:40:56.292Z,24.50
2023-02-11T01:43:18.910Z,22.08
2023-02-11T01:45:50.133Z,22.25
2023-02-11T01:47:58.096Z,22.20
2023-02-11T01:50:00.169Z,24.33
2023-02-11T01:52:30.076Z,24.58
2023-02-11T01:55:25.889Z,23.95
2023-02-11T01:57:51.796Z,22.55
2023-02-11T02:00:42.703Z,22.00
2023-02-11T02:03:20.137Z,23.48
2023-02-11T02:05:25.435Z,22.13
2023-02-11T02:07:52.709Z,23.83
2023-02-11T02:10:00.762Z,23.77
2023-02-11T02:12:02.815Z,22.20
2023-02-11T02:14:04.866Z,24.40
2023-02-11T02:16:36.691Z,23.88
2023-02-11T02:19:38.975Z,22.25
2023-02-11T02:22:14.347Z,25.08
2023-02-11T02:25:50.553Z,21.60
2023-02-11T02:28:36.545Z,23.55
2023-02-11T02:31:59.159Z,24.27
2023-02-11T02:34:47.916Z,24.70
2023-02-11T02:37:31.325Z,21.30
2023-02-11T02:39:53.678Z,23.50
2023-02-11T02:42:16.365Z,24.13
2023-02-11T02:44:38.702Z,25.27
2023-02-11T02:47:01.087Z,26.02
2023-02-11T02:49:23.513Z,25.00
2023-02-11T02:52:27.667Z,24.87
2023-02-11T02:55:12.005Z,23.20
2023-02-11T02:57:48.295Z,25.77
2023-02-11T03:00:30.173Z,24.92
2023-02-11T03:03:44.532Z,26.13
2023-02-11T03:06:26.785Z,26.08
2023-02-11T03:09:01.685Z,25.15
2023-02-11T03:11:24.049Z,26.05
2023-02-11T03:13:46.819Z,25.95
2023-02-11T03:16:13.930Z,25.65
2023-02-11T03:18:36.487Z,25.77
2023-02-11T03:20:42.528Z,26.02
2023-02-11T03:22:56.057Z,25.20
2023-02-11T03:24:58.074Z,26.00
2023-02-11T03:27:39.535Z,26.75
2023-02-11T03:30:06.289Z,26.17
2023-02-11T03:32:32.966Z,26.73
2023-02-11T03:35:09.133Z,27.83
2023-02-11T03:37:43.757Z,26.83
2023-02-11T03:40:19.032Z,26.80
2023-02-11T03:42:53.715Z,27.52
2023-02-11T03:45:10.925Z,27.20
2023-02-11T03:47:13.154Z,25.98
2023-02-11T03:49:15.624Z,27.85
2023-02-11T03:51:27.439Z,27.75
2023-02-11T03:53:29.487Z,28.45
2023-02-11T03:55:32.177Z,29.55
2023-02-11T03:57:45.335Z,30.00
2023-02-11T03:59:57.635Z,30.90
2023-02-11T04:01:59.671Z,27.25
2023-02-11T04:04:18.189Z,29.58
2023-02-11T04:06:20.317Z,28.40
2023-02-11T04:08:22.345Z,29.30
2023-02-11T04:10:30.111Z,28.38
2023-02-11T04:12:32.168Z,28.08
2023-02-11T04:14:34.236Z,30.42
2023-02-11T04:16:38.181Z,28.48
2023-02-11T04:18:40.221Z,29.35
2023-02-11T04:20:42.232Z,29.55
2023-02-11T04:22:45.158Z,27.33
2023-02-11T04:24:47.215Z,30.83
2023-02-11T04:26:49.350Z,28.77
2023-02-11T04:28:51.437Z,29.45
2023-02-11T04:30:53.461Z,30.30
2023-02-11T04:32:55.468Z,30.05
2023-02-11T04:37:00.096Z,30.45
2023-02-11T04:39:02.192Z,31.20
2023-02-11T04:41:04.425Z,29.77
2023-02-11T04:43:06.555Z,31.90
2023-02-11T04:45:09.117Z,29.42
2023-02-11T04:47:15.420Z,30.52
2023-02-11T04:49:17.646Z,30.67
2023-02-11T04:51:19.670Z,32.00
2023-02-11T04:53:24.132Z,30.00
2023-02-11T04:55:26.162Z,32.17
2023-02-11T04:57:28.253Z,32.33
2023-02-11T04:59:31.155Z,31.98
2023-02-11T05:01:33.335Z,29.98
2023-02-11T05:03:35.505Z,32.72
2023-02-11T05:05:48.294Z,30.52
2023-02-11T05:07:50.655Z,32.90
2023-02-11T05:09:52.684Z,30.13
2023-02-11T05:12:15.253Z,32.25
2023-02-11T05:14:37.633Z,34.60
2023-02-11T05:16:40.177Z,33.45
2023-02-11T05:18:42.858Z,32.50
2023-02-11T05:23:08.414Z,32.47
2023-02-11T05:25:30.784Z,31.25
2023-02-11T05:27:32.797Z,30.10
2023-02-11T05:29:34.821Z,31.65
2023-02-11T05:31:40.063Z,32.47
2023-02-11T05:33:42.288Z,32.45
2023-02-11T05:35:44.344Z,33.80
2023-02-11T05:37:46.516Z,32.25
2023-02-11T05:39:48.716Z,31.92
2023-02-11T05:41:50.693Z,34.05
2023-02-11T05:44:13.091Z,33.27
2023-02-11T05:46:35.503Z,29.10
2023-02-11T05:48:52.438Z,33.05
2023-02-11T05:50:54.472Z,35.78
2023-02-11T05:52:56.501Z,35.38
2023-02-11T05:55:04.415Z,34.35
2023-02-11T05:57:06.420Z,35.25
2023-02-11T05:59:08.440Z,34.72
2023-02-11T06:01:22.152Z,34.88
2023-02-11T06:03:24.216Z,33.80
2023-02-11T06:05:26.515Z,37.13
2023-02-11T06:07:48.921Z,36.60
2023-02-11T06:10:11.412Z,36.25
2023-02-11T06:12:13.505Z,35.13
2023-02-11T06:14:15.581Z,35.33
2023-02-11T06:16:17.645Z,34.28
2023-02-11T06:18:19.810Z,35.72
2023-02-11T06:20:21.906Z,36.13
2023-02-11T06:22:23.928Z,36.05
2023-02-11T06:24:50.971Z,38.58
2023-02-11T06:26:48.101Z,36.33
2023-02-11T06:28:50.239Z,36.70
2023-02-11T06:30:52.424Z,36.40
2023-02-11T06:32:55.108Z,37.03
2023-02-11T06:36:59.184Z,36.40
2023-02-11T06:39:01.250Z,38.95
2023-02-11T06:41:03.383Z,36.70
2023-02-11T06:43:05.518Z,36.30
2023-02-11T06:45:13.237Z,35.47
2023-02-11T06:47:15.317Z,37.85
2023-02-11T06:49:17.346Z,36.88
2023-02-11T06:51:19.396Z,36.45
2023-02-11T06:53:21.487Z,36.17
2023-02-11T06:55:23.606Z,37.70
2023-02-11T06:57:25.715Z,33.67
2023-02-11T06:59:27.758Z,39.08
2023-02-11T07:01:29.911Z,38.65
2023-02-11T07:03:50.962Z,38.42
2023-02-11T07:06:18.037Z,38.03
2023-02-11T07:08:42.482Z,38.65
2023-02-11T07:11:11.450Z,37.35
2023-02-11T07:13:13.521Z,37.13
2023-02-11T07:15:33.872Z,37.45
2023-02-11T07:17:54.151Z,36.38
2023-02-11T07:20:16.905Z,34.27
2023-02-11T07:22:39.259Z,35.88
2023-02-11T07:25:01.657Z,38.28
2023-02-11T07:27:24.057Z,38.05
2023-02-11T07:29:29.074Z,36.97
2023-02-11T07:31:31.558Z,38.22
2023-02-11T07:33:39.723Z,39.15
2023-02-11T07:36:01.452Z,37.50
2023-02-11T07:38:21.364Z,37.83
2023-02-11T07:40:41.842Z,35.85
2023-02-11T07:43:04.351Z,37.45
2023-02-11T07:45:07.080Z,36.47
2023-02-11T07:49:12.221Z,35.22
2023-02-11T07:51:19.069Z,36.08
2023-02-11T07:53:21.141Z,36.67
2023-02-11T07:55:23.254Z,36.58
2023-02-11T07:57:25.385Z,37.85
2023-02-11T07:59:27.600Z,37.63
2023-02-11T08:01:30.315Z,37.58
2023-02-11T08:03:39.906Z,39.13
2023-02-11T08:06:12.660Z,38.25
2023-02-11T08:08:33.627Z,35.78
2023-02-11T08:10:56.025Z,35.55
2023-02-11T08:13:18.387Z,38.13
2023-02-11T08:15:40.864Z,36.28
2023-02-11T08:18:03.334Z,31.90
2023-02-11T08:20:25.660Z,34.63
2023-02-11T08:22:48.020Z,33.42
2023-02-11T08:25:10.371Z,31.87
2023-02-11T08:27:32.790Z,32.37
2023-02-11T08:29:55.605Z,35.40
2023-02-11T08:32:18.042Z,34.85
2023-02-11T08:34:40.762Z,35.60
2023-02-11T08:36:52.616Z,35.92
2023-02-11T08:39:08.574Z,34.08
2023-02-11T08:41:18.202Z,36.63
2023-02-11T08:43:26.207Z,32.10
2023-02-11T08:45:28.640Z,35.05
2023-02-11T08:47:31.506Z,34.90
2023-02-11T08:49:34.168Z,35.30
2023-02-11T08:53:38.213Z,35.78
2023-02-11T08:55:40.348Z,36.63
2023-02-11T08:57:42.371Z,38.30
2023-02-11T08:59:44.434Z,34.85
2023-02-11T09:01:47.865Z,36.38
2023-02-11T09:03:50.028Z,37.78
2023-02-11T09:06:06.916Z,37.25
2023-02-11T09:08:29.390Z,36.83
2023-02-11T09:10:51.960Z,37.05
2023-02-11T09:13:14.672Z,36.65
2023-02-11T09:15:37.049Z,36.05
2023-02-11T09:17:40.058Z,36.05
2023-02-11T09:19:42.101Z,35.40
2023-02-11T09:21:44.481Z,36.75
2023-02-11T09:24:06.678Z,35.28
2023-02-11T09:26:10.704Z,36.00
2023-02-11T09:28:12.784Z,35.38
2023-02-11T09:30:14.933Z,34.90
2023-02-11T09:32:17.068Z,34.45
2023-02-11T09:34:19.208Z,35.03
2023-02-11T09:36:40.370Z,36.35
2023-02-11T09:38:42.918Z,34.08
2023-02-11T09:40:45.374Z,35.65
2023-02-11T09:43:04.278Z,35.60
2023-02-11T09:45:13.425Z,35.28
2023-02-11T09:47:24.519Z,37.50
2023-02-11T09:49:39.133Z,33.20
2023-02-11T09:51:44.366Z,36.10
2023-02-11T09:53:49.461Z,35.05
2023-02-11T09:55:57.286Z,36.60
2023-02-11T09:58:03.580Z,36.47
2023-02-11T10:00:17.110Z,35.35
2023-02-11T10:02:47.982Z,35.08
2023-02-11T10:05:26.480Z,33.90
2023-02-11T10:07:34.652Z,34.85
2023-02-11T10:10:21.863Z,34.85
2023-02-11T10:12:46.404Z,35.35
2023-02-11T10:15:24.646Z,34.97
2023-02-11T10:17:52.746Z,33.90
2023-02-11T10:20:08.382Z,30.75
2023-02-11T10:22:35.472Z,29.70
2023-02-11T10:24:37.701Z,32.95
2023-02-11T10:26:57.996Z,30.70
2023-02-11T10:29:44.003Z,30.85
2023-02-11T10:32:45.042Z,32.53
2023-02-11T10:34:47.075Z,32.50
2023-02-11T10:37:07.689Z,29.88
2023-02-11T10:39:26.750Z,33.25
2023-02-11T10:41:51.504Z,31.73
2023-02-11T10:43:53.530Z,30.92
2023-02-11T10:45:56.392Z,32.30
2023-02-11T10:48:00.977Z,33.28
2023-02-11T10:50:25.919Z,29.90
2023-02-11T10:52:30.586Z,32.22
2023-02-11T10:54:32.736Z,30.25
2023-02-11T10:56:36.594Z,30.60
2023-02-11T10:58:47.156Z,30.10
2023-02-11T11:00:53.290Z,30.40
2023-02-11T11:03:17.702Z,30.25
2023-02-11T11:05:32.732Z,28.33
2023-02-11T11:07:34.870Z,30.23
2023-02-11T11:09:53.542Z,31.45
2023-02-11T11:11:56.138Z,29.80
2023-02-11T11:13:59.967Z,29.42
2023-02-11T11:16:13.852Z,28.15
2023-02-11T11:18:23.033Z,29.17
2023-02-11T11:20:32.130Z,28.77
2023-02-11T11:22:34.159Z,25.70
2023-02-11T11:24:44.631Z,26.65
2023-02-11T11:26:51.691Z,26.90
2023-02-11T11:29:02.703Z,25.90
2023-02-11T11:31:05.166Z,25.27
2023-02-11T11:33:20.625Z,26.40
2023-02-11T11:35:30.473Z,26.00
2023-02-11T11:37:33.572Z,24.67
2023-02-11T11:39:35.604Z,24.35
2023-02-11T11:41:37.829Z,25.23
2023-02-11T11:43:40.116Z,24.63
2023-02-11T11:46:03.013Z,26.85
2023-02-11T11:48:14.718Z,25.25
2023-02-11T11:50:38.109Z,24.50
2023-02-11T11:53:05.290Z,24.48
2023-02-11T11:55:27.367Z,23.45
2023-02-11T11:57:30.730Z,22.70
2023-02-11T11:59:32.763Z,24.08
2023-02-11T12:01:47.778Z,24.75
2023-02-11T12:04:10.617Z,23.58
2023-02-11T12:06:53.743Z,21.75
2023-02-11T12:09:14.208Z,21.38
2023-02-11T12:11:26.579Z,20.25
2023-02-11T12:13:54.785Z,22.55
2023-02-11T12:16:27.429Z,23.00
2023-02-11T12:18:50.157Z,20.45
2023-02-11T12:20:58.043Z,21.38
2023-02-11T12:23:24.248Z,19.83
2023-02-11T12:26:12.269Z,20.33
2023-02-11T12:28:55.109Z,20.27
2023-02-11T12:31:22.881Z,18.80
2023-02-11T12:33:50.980Z,19.55
2023-02-11T12:35:56.876Z,19.30
2023-02-11T12:38:59.514Z,19.58
2023-02-11T12:41:46.865Z,18.90
2023-02-11T12:43:48.874Z,19.48
2023-02-11T12:46:12.558Z,19.63
2023-02-11T12:48:50.458Z,18.67
2023-02-11T12:51:16.554Z,20.27
2023-02-11T12:54:15.099Z,19.05
2023-02-11T12:57:27.887Z,19.23
2023-02-11T13:00:05.421Z,18.63
2023-02-11T13:02:54.405Z,21.13
2023-02-11T13:05:34.737Z,19.35
2023-02-11T13:08:17.104Z,19.95
2023-02-11T13:10:38.680Z,21.08
2023-02-11T13:12:59.353Z,18.45
2023-02-11T13:15:06.834Z,18.60
2023-02-11T13:17:21.773Z,17.67
2023-02-11T13:19:34.023Z,17.77
2023-02-11T13:21:59.918Z,17.55
2023-02-11T13:24:37.171Z,16.75
2023-02-11T13:27:10.515Z,18.58
2023-02-11T13:29:32.984Z,17.35
2023-02-11T13:31:35.152Z,17.75
2023-02-11T13:33:43.312Z,18.80
2023-02-11T13:36:10.710Z,17.85
2023-02-11T13:38:27.688Z,18.77
2023-02-11T13:40:38.090Z,18.50
2023-02-11T13:42:58.092Z,17.35
2023-02-11T13:45:00.409Z,17.58
2023-02-11T13:47:05.045Z,18.00
2023-02-11T13:49:25.370Z,18.08
2023-02-11T13:51:40.657Z,17.75
2023-02-11T13:53:53.429Z,18.30
2023-02-11T13:56:08.831Z,19.30
2023-02-11T13:58:27.360Z,19.83
2023-02-11T14:00:35.345Z,19.35
2023-02-11T14:02:55.858Z,18.27
2023-02-11T14:05:22.241Z,18.88
2023-02-11T14:07:50.260Z,18.15
2023-02-11T14:09:57.063Z,18.05
2023-02-11T14:12:24.474Z,18.67
2023-02-11T14:14:33.937Z,19.02
2023-02-11T14:16:38.619Z,18.25
2023-02-11T14:18:55.945Z,18.10
2023-02-11T14:21:25.871Z,16.88
2023-02-11T14:23:27.925Z,19.45
2023-02-11T14:25:29.966Z,19.80
2023-02-11T14:27:47.674Z,18.25
2023-02-11T14:30:23.545Z,19.10
2023-02-11T14:32:50.894Z,18.35
2023-02-11T14:35:10.800Z,18.65
2023-02-11T14:37:28.071Z,20.02
2023-02-11T14:40:00.763Z,20.63
2023-02-11T14:42:02.993Z,23.75
2023-02-11T14:44:06.780Z,23.90
2023-02-11T14:46:09.829Z,22.58
2023-02-11T14:48:19.768Z,24.45
2023-02-11T14:50:45.528Z,25.30
2023-02-11T14:52:47.531Z,24.73
2023-02-11T14:54:49.873Z,23.00
2023-02-11T14:57:14.963Z,23.85
2023-02-11T14:59:22.215Z,20.20
2023-02-11T15:01:36.042Z,20.20
2023-02-11T15:03:38.915Z,19.42
2023-02-11T15:05:41.200Z,19.05
2023-02-11T15:07:49.210Z,20.77
2023-02-11T15:09:52.936Z,19.25
2023-02-11T15:11:55.279Z,19.38
2023-02-11T15:13:59.154Z,20.40
2023-02-11T15:16:06.615Z,20.13
2023-02-11T15:18:10.498Z,20.65
2023-02-11T15:20:26.088Z,20.65
2023-02-11T15:22:33.562Z,19.55
2023-02-11T15:24:36.277Z,19.88
2023-02-11T15:26:38.424Z,20.00
2023-02-11T15:28:48.919Z,19.67
2023-02-11T15:31:16.977Z,20.70
2023-02-11T15:33:23.327Z,20.27
2023-02-11T15:35:37.724Z,20.92
2023-02-11T15:37:40.904Z,22.23
2023-02-11T15:39:43.308Z,22.33
2023-02-11T15:41:45.518Z,20.63
2023-02-11T15:43:50.825Z,22.92
2023-02-11T15:45:57.058Z,22.95
2023-02-11T15:48:20.630Z,23.80
2023-02-11T15:50:26.977Z,23.08
2023-02-11T15:52:29.195Z,21.42
2023-02-11T15:54:32.624Z,22.02
2023-02-11T15:56:43.572Z,25.45
2023-02-11T15:58:47.636Z,27.50
2023-02-11T16:00:51.829Z,27.80
2023-02-11T16:02:54.230Z,27.88
2023-02-11T16:05:04.965Z,27.58
2023-02-11T16:07:07.137Z,25.95
2023-02-11T16:09:12.776Z,25.80
2023-02-11T16:11:30.578Z,26.80
2023-02-11T16:13:35.514Z,23.58
2023-02-11T16:15:49.705Z,25.90
2023-02-11T16:17:53.294Z,28.58
2023-02-11T16:19:55.578Z,28.42
2023-02-11T16:22:00.156Z,31.13
2023-02-11T16:24:02.678Z,30.65
2023-02-11T16:26:33.099Z,32.20
2023-02-11T16:28:37.206Z,35.20
2023-02-11T16:30:39.908Z,34.33
2023-02-11T16:34:44.055Z,33.05
2023-02-11T16:36:47.136Z,33.30
2023-02-11T16:38:49.290Z,33.30
2023-02-11T16:40:56.432Z,32.00
2023-02-11T16:42:58.517Z,32.10
2023-02-11T16:45:00.546Z,33.22
2023-02-11T16:47:28.055Z,33.17
2023-02-11T16:49:50.400Z,32.25
2023-02-11T16:52:14.512Z,31.40
2023-02-11T16:54:17.211Z,30.13
2023-02-11T16:58:21.478Z,25.75
2023-02-11T17:00:24.093Z,24.23
2023-02-11T17:02:31.994Z,23.60
2023-02-11T17:04:34.579Z,23.55
2023-02-11T17:08:39.551Z,22.83
2023-02-11T17:10:41.794Z,23.52
2023-02-11T17:12:43.851Z,25.60
2023-02-11T17:14:45.883Z,21.38
2023-02-11T17:16:48.187Z,21.60
2023-02-11T17:19:12.530Z,20.23
2023-02-11T17:21:14.721Z,20.35
2023-02-11T17:23:17.085Z,20.17
2023-02-11T17:25:19.305Z,21.35
2023-02-11T17:27:21.436Z,22.50
2023-02-11T17:29:36.071Z,21.35
2023-02-11T17:31:39.402Z,21.83
2023-02-11T17:33:41.553Z,22.48
2023-02-11T17:36:10.720Z,21.57
2023-02-11T17:38:21.129Z,20.13
2023-02-11T17:40:23.174Z,20.52
2023-02-11T17:42:25.307Z,21.67
2023-02-11T17:44:34.230Z,19.58
2023-02-11T17:46:36.425Z,22.10
2023-02-11T17:48:38.789Z,22.05
2023-02-11T17:50:46.070Z,27.33
2023-02-11T17:52:48.125Z,29.52
2023-02-11T17:54:50.391Z,31.23
2023-02-11T17:56:58.647Z,32.72
2023-02-11T18:01:04.761Z,28.80
2023-02-11T18:03:27.219Z,26.23
2023-02-11T18:05:37.288Z,23.95
2023-02-11T18:07:39.553Z,22.80
2023-02-11T18:09:41.952Z,21.00
2023-02-11T18:12:05.448Z,21.00
2023-02-11T18:14:27.857Z,21.08
2023-02-11T18:16:38.706Z,22.38
2023-02-11T18:18:41.146Z,22.25
2023-02-11T18:20:43.350Z,22.63
2023-02-11T18:22:49.124Z,21.35
2023-02-11T18:24:54.403Z,21.95
2023-02-11T18:26:56.497Z,20.98
2023-02-11T18:29:18.691Z,19.25
2023-02-11T18:31:22.042Z,20.15
2023-02-11T18:33:24.202Z,20.13
2023-02-11T18:35:49.215Z,19.25
2023-02-11T18:38:11.711Z,20.52
2023-02-11T18:40:34.205Z,19.60
2023-02-11T18:42:46.201Z,19.92
2023-02-11T18:45:10.011Z,20.52
2023-02-11T18:47:12.028Z,20.33
2023-02-11T18:49:36.252Z,20.30
2023-02-11T18:51:41.024Z,19.88
2023-02-11T18:54:01.780Z,20.35
2023-02-11T18:56:23.448Z,20.38
2023-02-11T18:58:37.744Z,19.45
2023-02-11T19:00:41.647Z,17.20
2023-02-11T19:02:43.724Z,17.33
2023-02-11T19:04:47.165Z,15.90
2023-02-11T19:06:55.284Z,16.55
2023-02-11T19:09:00.288Z,16.15
2023-02-11T19:11:42.702Z,16.95
2023-02-11T19:14:10.195Z,16.10
2023-02-11T19:16:14.023Z,17.00
2023-02-11T19:18:16.240Z,14.05
2023-02-11T19:20:20.233Z,13.88
2023-02-11T19:22:40.993Z,14.35
2023-02-11T19:24:43.048Z,14.15
2023-02-11T19:26:51.554Z,13.13
2023-02-11T19:28:53.742Z,15.50
2023-02-11T19:30:55.927Z,14.52
2023-02-11T19:33:18.574Z,12.82
2023-02-11T19:35:40.928Z,13.15
2023-02-11T19:38:04.870Z,14.20
2023-02-11T19:40:27.242Z,11.95
2023-02-11T19:42:43.248Z,12.73
2023-02-11T19:45:05.786Z,12.65
2023-02-11T19:47:07.823Z,13.00
2023-02-11T19:49:14.382Z,13.18
2023-02-11T19:51:16.742Z,12.60
2023-02-11T19:53:18.856Z,12.43
2023-02-11T19:55:21.095Z,12.48
2023-02-11T19:57:23.197Z,14.73
2023-02-11T19:59:25.346Z,13.02
2023-02-11T20:01:32.244Z,13.15
2023-02-11T20:03:34.541Z,14.50
2023-02-11T20:05:39.854Z,14.05
2023-02-11T20:07:41.997Z,16.10
2023-02-11T20:10:02.437Z,13.73
2023-02-11T20:12:22.946Z,15.05
2023-02-11T20:14:32.058Z,15.50
2023-02-11T20:16:47.499Z,14.95
2023-02-11T20:18:50.976Z,14.02
2023-02-11T20:21:19.447Z,13.40
2023-02-11T20:23:42.172Z,13.00
2023-02-11T20:26:11.520Z,14.25
2023-02-11T20:28:32.251Z,13.07
2023-02-11T20:30:58.825Z,14.00
2023-02-11T20:33:11.605Z,13.15
2023-02-11T20:35:17.096Z,13.90
2023-02-11T20:39:41.313Z,13.45
2023-02-11T20:42:04.098Z,13.57
2023-02-11T20:44:27.265Z,13.48
2023-02-11T20:46:50.606Z,13.25
2023-02-11T20:49:21.467Z,12.45
2023-02-11T20:51:44.316Z,12.98
2023-02-11T20:54:07.112Z,13.18
2023-02-11T20:56:13.499Z,12.02
2023-02-11T20:58:15.752Z,12.43
2023-02-11T21:00:18.871Z,12.25
2023-02-11T21:02:24.863Z,12.60
2023-02-11T21:04:29.606Z,13.82
2023-02-11T21:06:45.692Z,14.50
2023-02-11T21:08:54.293Z,15.45
2023-02-11T21:10:56.752Z,14.88
2023-02-11T21:13:10.834Z,13.05
2023-02-11T21:15:20.083Z,13.85
2023-02-11T21:17:22.413Z,14.27
2023-02-11T21:19:24.571Z,14.50
2023-02-11T21:21:47.060Z,15.88
2023-02-11T21:23:49.122Z,15.27
2023-02-11T21:25:54.956Z,16.30
2023-02-11T21:28:00.225Z,15.60
2023-02-11T21:30:02.390Z,13.50
2023-02-11T21:32:07.144Z,11.77
2023-02-11T21:34:29.594Z,10.20
2023-02-11T21:36:52.437Z,10.40
2023-02-11T21:39:15.250Z,9.85
2023-02-11T21:41:37.760Z,9.48
2023-02-11T21:44:00.165Z,8.68
2023-02-11T21:46:22.845Z,7.57
2023-02-11T21:48:45.345Z,7.20
2023-02-11T21:51:32.744Z,6.88
2023-02-11T21:53:59.812Z,6.32
2023-02-11T21:56:22.568Z,5.85
2023-02-11T21:58:45.794Z,7.00
2023-02-11T22:03:39.127Z,7.25
2023-02-11T22:06:06.433Z,7.25
2023-02-11T22:08:30.443Z,7.05
2023-02-11T22:10:52.837Z,7.15
2023-02-11T22:13:15.206Z,9.57
2023-02-11T22:15:37.562Z,9.97
2023-02-11T22:17:59.914Z,9.70
2023-02-11T22:20:22.850Z,11.90
2023-02-11T22:22:45.224Z,10.75
2023-02-11T22:25:08.067Z,9.30
2023-02-11T22:27:30.429Z,47.22
2023-02-11T22:29:53.081Z,45.65
2023-02-11T22:32:17.745Z,11.95
2023-02-11T22:34:40.279Z,8.35
2023-02-11T22:37:02.839Z,6.25
2023-02-11T22:39:25.310Z,5.18
2023-02-11T22:41:47.958Z,6.07
2023-02-11T22:44:10.668Z,5.88
2023-02-11T22:46:33.138Z,5.80
2023-02-11T22:48:55.530Z,6.47
2023-02-11T22:51:23.445Z,5.57
2023-02-11T22:53:59.162Z,5.10
2023-02-11T22:56:21.713Z,5.68
2023-02-11T22:58:44.227Z,6.72
2023-02-11T23:01:06.946Z,6.93
2023-02-11T23:03:29.535Z,7.05
2023-02-11T23:07:33.951Z,10.52
2023-02-11T23:09:35.969Z,10.25
2023-02-11T23:11:45.089Z,9.38
2023-02-11T23:13:47.892Z,8.45
2023-02-11T23:15:49.912Z,7.95
2023-02-11T23:18:12.744Z,6.43
2023-02-11T23:20:24.222Z,6.60
2023-02-11T23:22:26.281Z,6.63
2023-02-11T23:24:28.309Z,6.15
2023-02-11T23:26:38.026Z,6.15
2023-02-11T23:28:40.276Z,6.68
2023-02-11T23:30:42.450Z,7.03
2023-02-11T23:32:44.548Z,8.02
2023-02-11T23:34:46.636Z,8.68
2023-02-11T23:36:48.695Z,8.57
2023-02-11T23:38:51.166Z,7.93
2023-02-11T23:40:53.188Z,7.53
2023-02-11T23:42:55.229Z,7.88
2023-02-11T23:44:57.340Z,8.13
2023-02-11T23:46:59.408Z,8.55
2023-02-11T23:49:04.233Z,6.93
2023-02-11T23:51:14.077Z,7.57
2023-02-11T23:53:16.126Z,6.88
2023-02-11T23:55:18.224Z,6.25
2023-02-11T23:57:20.379Z,7.13
2023-02-11T23:59:22.433Z,6.82
